sensor_id;sensor_type;location;lat;lon;timestamp;P1;durP1;ratioP1;P2;durP2;ratioP2
13228;SDS011;6680;53.220;10.402;2022-09-13T00:01:05;3.27;;;2.93;;
13228;SDS011;6680;53.220;10.402;2022-09-13T00:03:33;3.60;;;3.30;;
13228;SDS011;6680;53.220;10.402;2022-09-13T00:06:06;5.17;;;3.37;;
13228;SDS011;6680;53.220;10.402;2022-09-13T00:08:33;3.40;;;3.10;;
13228;SDS011;6680;53.220;10.402;2022-09-13T00:11:00;4.10;;;3.30;;
13228;SDS011;6680;53.220;10.402;2022-09-13T00:13:27;3.63;;;3.23;;
13228;SDS011;6680;53.220;10.402;2022-09-13T00:15:53;3.27;;;2.97;;
13228;SDS011;6680;53.220;10.402;2022-09-13T00:18:20;3.20;;;2.93;;
13228;SDS011;6680;53.220;10.402;2022-09-13T00:20:48;3.23;;;2.93;;
13228;SDS011;6680;53.220;10.402;2022-09-13T00:23:15;3.57;;;3.27;;
13228;SDS011;6680;53.220;10.402;2022-09-13T00:25:42;2.90;;;2.70;;
13228;SDS011;6680;53.220;10.402;2022-09-13T00:28:08;3.07;;;2.87;;
13228;SDS011;6680;53.220;10.402;2022-09-13T00:30:35;3.37;;;3.07;;
13228;SDS011;6680;53.220;10.402;2022-09-13T00:33:02;4.53;;;3.40;;
13228;SDS011;6680;53.220;10.402;2022-09-13T00:35:29;3.40;;;3.10;;
13228;SDS011;6680;53.220;10.402;2022-09-13T00:37:59;4.03;;;2.87;;
13228;SDS011;6680;53.220;10.402;2022-09-13T00:40:26;4.07;;;3.10;;
13228;SDS011;6680;53.220;10.402;2022-09-13T00:42:54;3.57;;;3.13;;
13228;SDS011;6680;53.220;10.402;2022-09-13T00:45:20;3.63;;;2.97;;
13228;SDS011;6680;53.220;10.402;2022-09-13T00:47:47;2.90;;;2.70;;
13228;SDS011;6680;53.220;10.402;2022-09-13T00:50:20;3.30;;;3.00;;
13228;SDS011;6680;53.220;10.402;2022-09-13T00:52:51;3.33;;;3.03;;
13228;SDS011;6680;53.220;10.402;2022-09-13T00:55:28;3.30;;;3.00;;
13228;SDS011;6680;53.220;10.402;2022-09-13T00:58:00;3.30;;;3.00;;
13228;SDS011;6680;53.220;10.402;2022-09-13T01:00:31;3.50;;;3.00;;
13228;SDS011;6680;53.220;10.402;2022-09-13T01:02:58;4.40;;;3.27;;
13228;SDS011;6680;53.220;10.402;2022-09-13T01:05:29;3.30;;;3.00;;
13228;SDS011;6680;53.220;10.402;2022-09-13T01:08:00;3.30;;;3.00;;
13228;SDS011;6680;53.220;10.402;2022-09-13T01:10:29;3.53;;;2.83;;
13228;SDS011;6680;53.220;10.402;2022-09-13T01:13:00;3.40;;;3.10;;
13228;SDS011;6680;53.220;10.402;2022-09-13T01:15:37;4.33;;;3.00;;
13228;SDS011;6680;53.220;10.402;2022-09-13T01:18:04;2.97;;;2.77;;
13228;SDS011;6680;53.220;10.402;2022-09-13T01:20:36;3.20;;;3.00;;
13228;SDS011;6680;53.220;10.402;2022-09-13T01:23:18;3.10;;;2.80;;
13228;SDS011;6680;53.220;10.402;2022-09-13T01:26:31;3.90;;;3.20;;
13228;SDS011;6680;53.220;10.402;2022-09-13T01:29:20;3.57;;;3.00;;
13228;SDS011;6680;53.220;10.402;2022-09-13T01:32:01;2.80;;;2.60;;
13228;SDS011;6680;53.220;10.402;2022-09-13T01:34:35;3.07;;;2.87;;
13228;SDS011;6680;53.220;10.402;2022-09-13T01:37:16;3.40;;;3.10;;
13228;SDS011;6680;53.220;10.402;2022-09-13T01:39:57;3.17;;;2.97;;
13228;SDS011;6680;53.220;10.402;2022-09-13T01:42:34;3.50;;;3.10;;
13228;SDS011;6680;53.220;10.402;2022-09-13T01:45:16;4.10;;;3.27;;
13228;SDS011;6680;53.220;10.402;2022-09-13T01:47:50;3.73;;;2.97;;
13228;SDS011;6680;53.220;10.402;2022-09-13T01:50:24;4.50;;;3.30;;
13228;SDS011;6680;53.220;10.402;2022-09-13T01:53:02;3.47;;;3.17;;
13228;SDS011;6680;53.220;10.402;2022-09-13T01:55:36;3.73;;;3.00;;
13228;SDS011;6680;53.220;10.402;2022-09-13T01:58:08;5.83;;;3.43;;
13228;SDS011;6680;53.220;10.402;2022-09-13T02:00:43;4.07;;;3.33;;
13228;SDS011;6680;53.220;10.402;2022-09-13T02:03:15;4.20;;;3.70;;
13228;SDS011;6680;53.220;10.402;2022-09-13T02:05:46;3.70;;;3.30;;
13228;SDS011;6680;53.220;10.402;2022-09-13T02:08:18;3.40;;;3.10;;
13228;SDS011;6680;53.220;10.402;2022-09-13T02:10:50;3.23;;;2.93;;
13228;SDS011;6680;53.220;10.402;2022-09-13T02:13:21;5.10;;;3.60;;
13228;SDS011;6680;53.220;10.402;2022-09-13T02:15:52;3.37;;;3.07;;
13228;SDS011;6680;53.220;10.402;2022-09-13T02:18:24;3.70;;;3.40;;
13228;SDS011;6680;53.220;10.402;2022-09-13T02:20:57;4.00;;;3.67;;
13228;SDS011;6680;53.220;10.402;2022-09-13T02:23:28;5.63;;;3.80;;
13228;SDS011;6680;53.220;10.402;2022-09-13T02:26:00;6.77;;;4.40;;
13228;SDS011;6680;53.220;10.402;2022-09-13T02:28:31;3.97;;;3.57;;
13228;SDS011;6680;53.220;10.402;2022-09-13T02:31:01;5.43;;;3.83;;
13228;SDS011;6680;53.220;10.402;2022-09-13T02:33:34;4.90;;;3.33;;
13228;SDS011;6680;53.220;10.402;2022-09-13T02:36:04;4.70;;;3.57;;
13228;SDS011;6680;53.220;10.402;2022-09-13T02:38:36;5.40;;;3.80;;
13228;SDS011;6680;53.220;10.402;2022-09-13T02:41:08;6.97;;;4.00;;
13228;SDS011;6680;53.220;10.402;2022-09-13T02:43:42;4.40;;;3.87;;
13228;SDS011;6680;53.220;10.402;2022-09-13T02:46:13;6.53;;;4.47;;
13228;SDS011;6680;53.220;10.402;2022-09-13T02:48:51;5.07;;;4.13;;
13228;SDS011;6680;53.220;10.402;2022-09-13T02:51:24;10.03;;;4.70;;
13228;SDS011;6680;53.220;10.402;2022-09-13T02:54:00;5.50;;;4.33;;
13228;SDS011;6680;53.220;10.402;2022-09-13T02:56:37;5.07;;;3.80;;
13228;SDS011;6680;53.220;10.402;2022-09-13T02:59:13;5.57;;;4.13;;
13228;SDS011;6680;53.220;10.402;2022-09-13T03:01:43;5.93;;;3.57;;
13228;SDS011;6680;53.220;10.402;2022-09-13T03:04:14;7.90;;;4.53;;
13228;SDS011;6680;53.220;10.402;2022-09-13T03:06:41;5.00;;;4.50;;
13228;SDS011;6680;53.220;10.402;2022-09-13T03:09:08;4.97;;;4.20;;
13228;SDS011;6680;53.220;10.402;2022-09-13T03:11:38;5.33;;;4.07;;
13228;SDS011;6680;53.220;10.402;2022-09-13T03:14:20;5.97;;;4.20;;
13228;SDS011;6680;53.220;10.402;2022-09-13T03:17:02;6.07;;;4.40;;
13228;SDS011;6680;53.220;10.402;2022-09-13T03:19:46;6.03;;;5.03;;
13228;SDS011;6680;53.220;10.402;2022-09-13T03:22:26;5.07;;;4.30;;
13228;SDS011;6680;53.220;10.402;2022-09-13T03:25:06;5.17;;;4.67;;
13228;SDS011;6680;53.220;10.402;2022-09-13T03:27:40;6.47;;;4.80;;
13228;SDS011;6680;53.220;10.402;2022-09-13T03:30:19;5.53;;;4.77;;
13228;SDS011;6680;53.220;10.402;2022-09-13T03:32:47;5.70;;;4.63;;
13228;SDS011;6680;53.220;10.402;2022-09-13T03:35:21;6.27;;;4.27;;
13228;SDS011;6680;53.220;10.402;2022-09-13T03:37:55;5.27;;;4.70;;
13228;SDS011;6680;53.220;10.402;2022-09-13T03:40:27;6.87;;;4.27;;
13228;SDS011;6680;53.220;10.402;2022-09-13T03:43:03;6.63;;;3.63;;
13228;SDS011;6680;53.220;10.402;2022-09-13T03:45:35;5.07;;;4.03;;
13228;SDS011;6680;53.220;10.402;2022-09-13T03:48:06;5.33;;;4.77;;
13228;SDS011;6680;53.220;10.402;2022-09-13T03:50:36;5.97;;;4.33;;
13228;SDS011;6680;53.220;10.402;2022-09-13T03:53:07;4.80;;;4.30;;
13228;SDS011;6680;53.220;10.402;2022-09-13T03:55:37;5.57;;;5.00;;
13228;SDS011;6680;53.220;10.402;2022-09-13T03:58:07;6.43;;;4.07;;
13228;SDS011;6680;53.220;10.402;2022-09-13T04:00:36;6.20;;;4.50;;
13228;SDS011;6680;53.220;10.402;2022-09-13T04:03:04;6.97;;;4.40;;
13228;SDS011;6680;53.220;10.402;2022-09-13T04:05:31;6.13;;;4.60;;
13228;SDS011;6680;53.220;10.402;2022-09-13T04:08:00;5.97;;;5.07;;
13228;SDS011;6680;53.220;10.402;2022-09-13T04:10:27;5.73;;;4.27;;
13228;SDS011;6680;53.220;10.402;2022-09-13T04:12:55;5.23;;;4.73;;
13228;SDS011;6680;53.220;10.402;2022-09-13T04:15:23;7.67;;;4.90;;
13228;SDS011;6680;53.220;10.402;2022-09-13T04:17:50;6.13;;;4.87;;
13228;SDS011;6680;53.220;10.402;2022-09-13T04:20:16;6.23;;;4.97;;
13228;SDS011;6680;53.220;10.402;2022-09-13T04:22:49;6.33;;;4.60;;
13228;SDS011;6680;53.220;10.402;2022-09-13T04:25:17;7.07;;;4.70;;
13228;SDS011;6680;53.220;10.402;2022-09-13T04:27:44;5.27;;;4.40;;
13228;SDS011;6680;53.220;10.402;2022-09-13T04:30:11;10.00;;;4.87;;
13228;SDS011;6680;53.220;10.402;2022-09-13T04:32:38;6.30;;;4.80;;
13228;SDS011;6680;53.220;10.402;2022-09-13T04:35:08;6.50;;;4.60;;
13228;SDS011;6680;53.220;10.402;2022-09-13T04:37:35;6.13;;;4.60;;
13228;SDS011;6680;53.220;10.402;2022-09-13T04:40:02;7.00;;;4.70;;
13228;SDS011;6680;53.220;10.402;2022-09-13T04:42:30;5.97;;;4.80;;
13228;SDS011;6680;53.220;10.402;2022-09-13T04:44:57;7.90;;;5.10;;
13228;SDS011;6680;53.220;10.402;2022-09-13T04:47:24;8.90;;;5.27;;
13228;SDS011;6680;53.220;10.402;2022-09-13T04:49:51;6.60;;;5.03;;
13228;SDS011;6680;53.220;10.402;2022-09-13T04:52:17;6.77;;;5.17;;
13228;SDS011;6680;53.220;10.402;2022-09-13T04:54:44;6.57;;;4.90;;
13228;SDS011;6680;53.220;10.402;2022-09-13T04:57:11;6.63;;;4.63;;
13228;SDS011;6680;53.220;10.402;2022-09-13T04:59:40;7.17;;;5.10;;
13228;SDS011;6680;53.220;10.402;2022-09-13T05:02:07;7.47;;;4.97;;
13228;SDS011;6680;53.220;10.402;2022-09-13T05:04:34;7.80;;;5.37;;
13228;SDS011;6680;53.220;10.402;2022-09-13T05:07:00;6.47;;;4.93;;
13228;SDS011;6680;53.220;10.402;2022-09-13T05:09:27;5.70;;;4.80;;
13228;SDS011;6680;53.220;10.402;2022-09-13T05:11:53;7.60;;;5.40;;
13228;SDS011;6680;53.220;10.402;2022-09-13T05:14:20;7.67;;;5.77;;
13228;SDS011;6680;53.220;10.402;2022-09-13T05:16:48;6.60;;;5.00;;
13228;SDS011;6680;53.220;10.402;2022-09-13T05:19:15;9.23;;;5.60;;
13228;SDS011;6680;53.220;10.402;2022-09-13T05:21:42;7.17;;;5.37;;
13228;SDS011;6680;53.220;10.402;2022-09-13T05:24:08;8.47;;;6.17;;
13228;SDS011;6680;53.220;10.402;2022-09-13T05:26:35;7.53;;;5.23;;
13228;SDS011;6680;53.220;10.402;2022-09-13T05:29:02;5.77;;;5.17;;
13228;SDS011;6680;53.220;10.402;2022-09-13T05:31:31;6.10;;;5.00;;
13228;SDS011;6680;53.220;10.402;2022-09-13T05:34:01;8.07;;;5.10;;
13228;SDS011;6680;53.220;10.402;2022-09-13T05:36:29;7.33;;;5.67;;
13228;SDS011;6680;53.220;10.402;2022-09-13T05:38:56;7.70;;;5.33;;
13228;SDS011;6680;53.220;10.402;2022-09-13T05:41:23;7.80;;;5.67;;
13228;SDS011;6680;53.220;10.402;2022-09-13T05:43:50;5.83;;;5.23;;
13228;SDS011;6680;53.220;10.402;2022-09-13T05:46:17;6.70;;;5.30;;
13228;SDS011;6680;53.220;10.402;2022-09-13T05:48:45;6.53;;;4.97;;
13228;SDS011;6680;53.220;10.402;2022-09-13T05:51:14;6.87;;;5.47;;
13228;SDS011;6680;53.220;10.402;2022-09-13T05:53:42;6.63;;;5.17;;
13228;SDS011;6680;53.220;10.402;2022-09-13T05:56:10;6.97;;;5.17;;
13228;SDS011;6680;53.220;10.402;2022-09-13T05:58:39;7.10;;;5.53;;
13228;SDS011;6680;53.220;10.402;2022-09-13T06:01:08;7.73;;;5.60;;
13228;SDS011;6680;53.220;10.402;2022-09-13T06:03:35;7.37;;;5.20;;
13228;SDS011;6680;53.220;10.402;2022-09-13T06:06:02;7.10;;;5.23;;
13228;SDS011;6680;53.220;10.402;2022-09-13T06:08:31;7.43;;;5.23;;
13228;SDS011;6680;53.220;10.402;2022-09-13T06:11:00;8.23;;;6.17;;
13228;SDS011;6680;53.220;10.402;2022-09-13T06:13:27;8.90;;;5.10;;
13228;SDS011;6680;53.220;10.402;2022-09-13T06:15:55;8.27;;;5.83;;
13228;SDS011;6680;53.220;10.402;2022-09-13T06:18:23;7.73;;;5.90;;
13228;SDS011;6680;53.220;10.402;2022-09-13T06:20:50;10.90;;;5.93;;
13228;SDS011;6680;53.220;10.402;2022-09-13T06:23:22;6.03;;;5.07;;
13228;SDS011;6680;53.220;10.402;2022-09-13T06:25:50;9.20;;;5.97;;
13228;SDS011;6680;53.220;10.402;2022-09-13T06:28:25;10.67;;;6.30;;
13228;SDS011;6680;53.220;10.402;2022-09-13T06:30:51;9.50;;;5.93;;
13228;SDS011;6680;53.220;10.402;2022-09-13T06:33:24;7.83;;;5.70;;
13228;SDS011;6680;53.220;10.402;2022-09-13T06:35:50;8.63;;;5.67;;
13228;SDS011;6680;53.220;10.402;2022-09-13T06:38:17;7.30;;;5.87;;
13228;SDS011;6680;53.220;10.402;2022-09-13T06:40:44;7.97;;;6.27;;
13228;SDS011;6680;53.220;10.402;2022-09-13T06:43:12;8.40;;;6.50;;
13228;SDS011;6680;53.220;10.402;2022-09-13T06:45:40;9.17;;;6.00;;
13228;SDS011;6680;53.220;10.402;2022-09-13T06:48:07;8.80;;;6.27;;
13228;SDS011;6680;53.220;10.402;2022-09-13T06:50:34;12.63;;;6.33;;
13228;SDS011;6680;53.220;10.402;2022-09-13T06:53:00;7.27;;;5.50;;
13228;SDS011;6680;53.220;10.402;2022-09-13T06:55:27;8.87;;;6.27;;
13228;SDS011;6680;53.220;10.402;2022-09-13T06:57:54;9.40;;;6.60;;
13228;SDS011;6680;53.220;10.402;2022-09-13T07:00:22;7.37;;;5.83;;
13228;SDS011;6680;53.220;10.402;2022-09-13T07:02:49;10.33;;;7.03;;
13228;SDS011;6680;53.220;10.402;2022-09-13T07:05:16;13.43;;;6.97;;
13228;SDS011;6680;53.220;10.402;2022-09-13T07:07:44;11.80;;;6.47;;
13228;SDS011;6680;53.220;10.402;2022-09-13T07:10:12;7.77;;;5.77;;
13228;SDS011;6680;53.220;10.402;2022-09-13T07:12:39;7.37;;;5.77;;
13228;SDS011;6680;53.220;10.402;2022-09-13T07:15:06;9.43;;;6.63;;
13228;SDS011;6680;53.220;10.402;2022-09-13T07:17:35;8.63;;;6.20;;
13228;SDS011;6680;53.220;10.402;2022-09-13T07:20:02;9.10;;;6.57;;
13228;SDS011;6680;53.220;10.402;2022-09-13T07:22:31;8.83;;;6.50;;
13228;SDS011;6680;53.220;10.402;2022-09-13T07:24:57;9.50;;;6.37;;
13228;SDS011;6680;53.220;10.402;2022-09-13T07:27:25;9.87;;;7.30;;
13228;SDS011;6680;53.220;10.402;2022-09-13T07:29:51;8.53;;;6.70;;
13228;SDS011;6680;53.220;10.402;2022-09-13T07:32:18;8.20;;;6.00;;
13228;SDS011;6680;53.220;10.402;2022-09-13T07:34:46;9.80;;;7.20;;
13228;SDS011;6680;53.220;10.402;2022-09-13T07:37:14;9.53;;;6.50;;
13228;SDS011;6680;53.220;10.402;2022-09-13T07:39:40;11.30;;;7.20;;
13228;SDS011;6680;53.220;10.402;2022-09-13T07:42:07;8.77;;;5.80;;
13228;SDS011;6680;53.220;10.402;2022-09-13T07:44:34;10.23;;;7.17;;
13228;SDS011;6680;53.220;10.402;2022-09-13T07:47:00;10.80;;;7.27;;
13228;SDS011;6680;53.220;10.402;2022-09-13T07:49:27;9.87;;;7.53;;
13228;SDS011;6680;53.220;10.402;2022-09-13T07:51:55;14.63;;;7.30;;
13228;SDS011;6680;53.220;10.402;2022-09-13T07:54:22;10.87;;;7.30;;
13228;SDS011;6680;53.220;10.402;2022-09-13T07:56:49;11.77;;;7.67;;
13228;SDS011;6680;53.220;10.402;2022-09-13T07:59:16;11.63;;;6.83;;
13228;SDS011;6680;53.220;10.402;2022-09-13T08:01:44;11.93;;;7.70;;
13228;SDS011;6680;53.220;10.402;2022-09-13T08:04:12;10.87;;;7.00;;
13228;SDS011;6680;53.220;10.402;2022-09-13T08:06:41;9.97;;;6.83;;
13228;SDS011;6680;53.220;10.402;2022-09-13T08:09:10;13.73;;;8.30;;
13228;SDS011;6680;53.220;10.402;2022-09-13T08:11:38;8.63;;;7.00;;
13228;SDS011;6680;53.220;10.402;2022-09-13T08:14:07;11.00;;;7.90;;
13228;SDS011;6680;53.220;10.402;2022-09-13T08:16:35;12.17;;;8.33;;
13228;SDS011;6680;53.220;10.402;2022-09-13T08:19:03;9.63;;;6.87;;
13228;SDS011;6680;53.220;10.402;2022-09-13T08:21:32;9.83;;;6.77;;
13228;SDS011;6680;53.220;10.402;2022-09-13T08:23:59;11.80;;;7.60;;
13228;SDS011;6680;53.220;10.402;2022-09-13T08:26:28;9.70;;;6.73;;
13228;SDS011;6680;53.220;10.402;2022-09-13T08:28:57;9.90;;;6.07;;
13228;SDS011;6680;53.220;10.402;2022-09-13T08:31:25;11.53;;;7.63;;
13228;SDS011;6680;53.220;10.402;2022-09-13T08:33:53;14.93;;;7.63;;
13228;SDS011;6680;53.220;10.402;2022-09-13T08:36:20;9.73;;;6.20;;
13228;SDS011;6680;53.220;10.402;2022-09-13T08:38:48;9.13;;;5.90;;
13228;SDS011;6680;53.220;10.402;2022-09-13T08:41:20;12.67;;;7.40;;
13228;SDS011;6680;53.220;10.402;2022-09-13T08:43:58;9.90;;;6.53;;
13228;SDS011;6680;53.220;10.402;2022-09-13T08:46:31;8.03;;;5.73;;
13228;SDS011;6680;53.220;10.402;2022-09-13T08:49:00;7.57;;;5.73;;
13228;SDS011;6680;53.220;10.402;2022-09-13T08:51:34;7.50;;;5.63;;
13228;SDS011;6680;53.220;10.402;2022-09-13T08:54:05;8.93;;;6.50;;
13228;SDS011;6680;53.220;10.402;2022-09-13T08:56:36;7.47;;;6.40;;
13228;SDS011;6680;53.220;10.402;2022-09-13T08:59:21;8.97;;;6.20;;
13228;SDS011;6680;53.220;10.402;2022-09-13T09:01:57;9.23;;;5.50;;
13228;SDS011;6680;53.220;10.402;2022-09-13T09:04:37;7.37;;;5.03;;
13228;SDS011;6680;53.220;10.402;2022-09-13T09:07:10;6.00;;;5.27;;
13228;SDS011;6680;53.220;10.402;2022-09-13T09:09:40;6.77;;;4.63;;
13228;SDS011;6680;53.220;10.402;2022-09-13T09:12:16;7.70;;;5.93;;
13228;SDS011;6680;53.220;10.402;2022-09-13T09:14:55;8.73;;;5.63;;
13228;SDS011;6680;53.220;10.402;2022-09-13T09:17:25;9.23;;;5.53;;
13228;SDS011;6680;53.220;10.402;2022-09-13T09:19:57;6.43;;;5.17;;
13228;SDS011;6680;53.220;10.402;2022-09-13T09:22:33;7.37;;;5.80;;
13228;SDS011;6680;53.220;10.402;2022-09-13T09:25:01;6.77;;;5.37;;
13228;SDS011;6680;53.220;10.402;2022-09-13T09:27:29;4.87;;;4.20;;
13228;SDS011;6680;53.220;10.402;2022-09-13T09:29:57;5.67;;;4.67;;
13228;SDS011;6680;53.220;10.402;2022-09-13T09:32:31;7.73;;;5.23;;
13228;SDS011;6680;53.220;10.402;2022-09-13T09:35:11;6.57;;;5.03;;
13228;SDS011;6680;53.220;10.402;2022-09-13T09:37:45;5.03;;;4.43;;
13228;SDS011;6680;53.220;10.402;2022-09-13T09:40:25;5.97;;;3.90;;
13228;SDS011;6680;53.220;10.402;2022-09-13T09:42:52;5.47;;;4.37;;
13228;SDS011;6680;53.220;10.402;2022-09-13T09:45:24;5.60;;;4.83;;
13228;SDS011;6680;53.220;10.402;2022-09-13T09:47:54;6.87;;;4.30;;
13228;SDS011;6680;53.220;10.402;2022-09-13T09:50:26;6.27;;;4.67;;
13228;SDS011;6680;53.220;10.402;2022-09-13T09:52:56;6.17;;;4.43;;
13228;SDS011;6680;53.220;10.402;2022-09-13T09:55:27;5.67;;;4.17;;
13228;SDS011;6680;53.220;10.402;2022-09-13T09:57:56;6.63;;;4.33;;
13228;SDS011;6680;53.220;10.402;2022-09-13T10:00:26;5.43;;;4.37;;
13228;SDS011;6680;53.220;10.402;2022-09-13T10:02:56;4.80;;;4.03;;
13228;SDS011;6680;53.220;10.402;2022-09-13T10:05:25;5.90;;;4.30;;
13228;SDS011;6680;53.220;10.402;2022-09-13T10:07:53;4.60;;;3.60;;
13228;SDS011;6680;53.220;10.402;2022-09-13T10:10:23;6.30;;;4.17;;
13228;SDS011;6680;53.220;10.402;2022-09-13T10:12:52;4.57;;;4.07;;
13228;SDS011;6680;53.220;10.402;2022-09-13T10:15:22;7.47;;;3.30;;
13228;SDS011;6680;53.220;10.402;2022-09-13T10:18:04;3.90;;;3.50;;
13228;SDS011;6680;53.220;10.402;2022-09-13T10:20:39;5.53;;;3.10;;
13228;SDS011;6680;53.220;10.402;2022-09-13T10:23:10;4.33;;;3.77;;
13228;SDS011;6680;53.220;10.402;2022-09-13T10:25:43;4.83;;;2.90;;
13228;SDS011;6680;53.220;10.402;2022-09-13T10:28:21;7.23;;;3.90;;
13228;SDS011;6680;53.220;10.402;2022-09-13T10:30:52;6.20;;;3.17;;
13228;SDS011;6680;53.220;10.402;2022-09-13T10:33:24;7.00;;;3.03;;
13228;SDS011;6680;53.220;10.402;2022-09-13T10:35:54;4.23;;;2.70;;
13228;SDS011;6680;53.220;10.402;2022-09-13T10:38:23;3.23;;;2.43;;
13228;SDS011;6680;53.220;10.402;2022-09-13T10:40:54;2.43;;;2.20;;
13228;SDS011;6680;53.220;10.402;2022-09-13T10:43:22;2.93;;;2.23;;
13228;SDS011;6680;53.220;10.402;2022-09-13T10:45:54;5.70;;;2.13;;
13228;SDS011;6680;53.220;10.402;2022-09-13T10:48:21;3.97;;;2.20;;
13228;SDS011;6680;53.220;10.402;2022-09-13T10:51:00;2.10;;;1.80;;
13228;SDS011;6680;53.220;10.402;2022-09-13T10:53:32;3.67;;;2.23;;
13228;SDS011;6680;53.220;10.402;2022-09-13T10:56:01;5.20;;;1.90;;
13228;SDS011;6680;53.220;10.402;2022-09-13T10:58:29;2.57;;;1.83;;
13228;SDS011;6680;53.220;10.402;2022-09-13T11:04:02;3.67;;;1.60;;
13228;SDS011;6680;53.220;10.402;2022-09-13T11:06:56;3.67;;;1.93;;
13228;SDS011;6680;53.220;10.402;2022-09-13T11:09:31;2.07;;;1.43;;
13228;SDS011;6680;53.220;10.402;2022-09-13T11:12:02;1.50;;;1.40;;
13228;SDS011;6680;53.220;10.402;2022-09-13T11:14:47;2.33;;;1.60;;
13228;SDS011;6680;53.220;10.402;2022-09-13T11:17:23;1.40;;;1.30;;
13228;SDS011;6680;53.220;10.402;2022-09-13T11:20:08;1.90;;;1.73;;
13228;SDS011;6680;53.220;10.402;2022-09-13T11:22:49;1.87;;;1.60;;
13228;SDS011;6680;53.220;10.402;2022-09-13T11:25:35;3.83;;;2.13;;
13228;SDS011;6680;53.220;10.402;2022-09-13T11:28:13;2.67;;;1.37;;
13228;SDS011;6680;53.220;10.402;2022-09-13T11:30:51;2.80;;;1.37;;
13228;SDS011;6680;53.220;10.402;2022-09-13T11:33:35;1.87;;;1.73;;
13228;SDS011;6680;53.220;10.402;2022-09-13T11:36:16;2.13;;;1.37;;
13228;SDS011;6680;53.220;10.402;2022-09-13T11:38:57;3.67;;;1.80;;
13228;SDS011;6680;53.220;10.402;2022-09-13T11:41:37;3.13;;;1.83;;
13228;SDS011;6680;53.220;10.402;2022-09-13T11:44:24;2.07;;;1.53;;
13228;SDS011;6680;53.220;10.402;2022-09-13T11:47:04;2.23;;;1.53;;
13228;SDS011;6680;53.220;10.402;2022-09-13T11:49:46;3.37;;;2.03;;
13228;SDS011;6680;53.220;10.402;2022-09-13T11:52:24;1.80;;;1.10;;
13228;SDS011;6680;53.220;10.402;2022-09-13T11:55:02;1.50;;;1.40;;
13228;SDS011;6680;53.220;10.402;2022-09-13T11:57:39;3.17;;;1.70;;
13228;SDS011;6680;53.220;10.402;2022-09-13T12:00:14;2.83;;;1.60;;
13228;SDS011;6680;53.220;10.402;2022-09-13T12:02:46;2.20;;;1.70;;
13228;SDS011;6680;53.220;10.402;2022-09-13T12:05:24;2.63;;;1.43;;
13228;SDS011;6680;53.220;10.402;2022-09-13T12:07:55;2.40;;;1.27;;
13228;SDS011;6680;53.220;10.402;2022-09-13T12:10:28;1.50;;;1.40;;
13228;SDS011;6680;53.220;10.402;2022-09-13T12:12:59;1.40;;;1.37;;
13228;SDS011;6680;53.220;10.402;2022-09-13T12:15:30;1.80;;;1.30;;
13228;SDS011;6680;53.220;10.402;2022-09-13T12:18:01;2.23;;;1.20;;
13228;SDS011;6680;53.220;10.402;2022-09-13T12:20:36;1.90;;;1.30;;
13228;SDS011;6680;53.220;10.402;2022-09-13T12:23:08;1.43;;;1.33;;
13228;SDS011;6680;53.220;10.402;2022-09-13T12:25:42;2.13;;;1.20;;
13228;SDS011;6680;53.220;10.402;2022-09-13T12:28:15;1.90;;;1.20;;
13228;SDS011;6680;53.220;10.402;2022-09-13T12:30:47;2.47;;;1.60;;
13228;SDS011;6680;53.220;10.402;2022-09-13T12:33:20;3.40;;;1.10;;
13228;SDS011;6680;53.220;10.402;2022-09-13T12:35:56;1.47;;;1.30;;
13228;SDS011;6680;53.220;10.402;2022-09-13T12:38:42;1.60;;;1.50;;
13228;SDS011;6680;53.220;10.402;2022-09-13T12:41:32;2.87;;;1.37;;
13228;SDS011;6680;53.220;10.402;2022-09-13T12:44:11;2.37;;;1.30;;
13228;SDS011;6680;53.220;10.402;2022-09-13T12:47:09;1.33;;;1.27;;
13228;SDS011;6680;53.220;10.402;2022-09-13T12:49:56;2.63;;;1.73;;
13228;SDS011;6680;53.220;10.402;2022-09-13T12:52:38;4.20;;;1.30;;
13228;SDS011;6680;53.220;10.402;2022-09-13T12:55:19;1.93;;;1.47;;
13228;SDS011;6680;53.220;10.402;2022-09-13T12:58:02;1.60;;;1.33;;
13228;SDS011;6680;53.220;10.402;2022-09-13T13:00:42;4.50;;;1.60;;
13228;SDS011;6680;53.220;10.402;2022-09-13T13:03:25;3.37;;;1.30;;
13228;SDS011;6680;53.220;10.402;2022-09-13T13:06:04;1.43;;;1.27;;
13228;SDS011;6680;53.220;10.402;2022-09-13T13:08:35;1.17;;;1.17;;
13228;SDS011;6680;53.220;10.402;2022-09-13T13:11:04;4.00;;;1.50;;
13228;SDS011;6680;53.220;10.402;2022-09-13T13:13:35;2.03;;;1.53;;
13228;SDS011;6680;53.220;10.402;2022-09-13T13:16:04;1.37;;;1.10;;
13228;SDS011;6680;53.220;10.402;2022-09-13T13:18:49;5.63;;;1.67;;
13228;SDS011;6680;53.220;10.402;2022-09-13T13:21:27;2.10;;;1.30;;
13228;SDS011;6680;53.220;10.402;2022-09-13T13:27:32;1.50;;;1.40;;
13228;SDS011;6680;53.220;10.402;2022-09-13T13:33:14;1.50;;;1.40;;
13228;SDS011;6680;53.220;10.402;2022-09-13T13:35:43;7.23;;;1.70;;
13228;SDS011;6680;53.220;10.402;2022-09-13T13:47:52;4.87;;;1.80;;
13228;SDS011;6680;53.220;10.402;2022-09-13T13:50:30;1.53;;;1.30;;
13228;SDS011;6680;53.220;10.402;2022-09-13T13:52:59;4.17;;;1.20;;
13228;SDS011;6680;53.220;10.402;2022-09-13T13:55:44;3.07;;;1.97;;
13228;SDS011;6680;53.220;10.402;2022-09-13T13:58:31;4.07;;;1.37;;
13228;SDS011;6680;53.220;10.402;2022-09-13T14:01:10;2.33;;;1.80;;
13228;SDS011;6680;53.220;10.402;2022-09-13T14:06:41;1.37;;;1.27;;
13228;SDS011;6680;53.220;10.402;2022-09-13T14:09:22;1.90;;;1.53;;
13228;SDS011;6680;53.220;10.402;2022-09-13T14:11:58;4.40;;;1.90;;
13228;SDS011;6680;53.220;10.402;2022-09-13T14:14:43;3.20;;;1.23;;
13228;SDS011;6680;53.220;10.402;2022-09-13T14:17:31;4.30;;;1.63;;
13228;SDS011;6680;53.220;10.402;2022-09-13T14:20:16;2.33;;;1.50;;
13228;SDS011;6680;53.220;10.402;2022-09-13T14:22:45;2.10;;;1.70;;
13228;SDS011;6680;53.220;10.402;2022-09-13T14:25:12;4.53;;;1.67;;
13228;SDS011;6680;53.220;10.402;2022-09-13T14:27:41;3.53;;;1.53;;
13228;SDS011;6680;53.220;10.402;2022-09-13T14:30:16;1.47;;;1.37;;
13228;SDS011;6680;53.220;10.402;2022-09-13T14:32:48;2.33;;;1.30;;
13228;SDS011;6680;53.220;10.402;2022-09-13T14:35:23;1.70;;;1.40;;
13228;SDS011;6680;53.220;10.402;2022-09-13T14:37:52;3.70;;;1.37;;
13228;SDS011;6680;53.220;10.402;2022-09-13T14:40:21;3.10;;;1.53;;
13228;SDS011;6680;53.220;10.402;2022-09-13T14:42:51;3.80;;;1.47;;
13228;SDS011;6680;53.220;10.402;2022-09-13T14:45:20;6.07;;;1.50;;
13228;SDS011;6680;53.220;10.402;2022-09-13T14:47:52;1.77;;;1.60;;
13228;SDS011;6680;53.220;10.402;2022-09-13T14:50:23;1.77;;;1.20;;
13228;SDS011;6680;53.220;10.402;2022-09-13T14:52:54;2.43;;;1.30;;
13228;SDS011;6680;53.220;10.402;2022-09-13T14:55:23;1.50;;;1.40;;
13228;SDS011;6680;53.220;10.402;2022-09-13T14:57:55;1.73;;;1.60;;
13228;SDS011;6680;53.220;10.402;2022-09-13T15:00:27;5.50;;;1.40;;
13228;SDS011;6680;53.220;10.402;2022-09-13T15:02:56;2.70;;;1.47;;
13228;SDS011;6680;53.220;10.402;2022-09-13T15:05:26;3.10;;;1.47;;
13228;SDS011;6680;53.220;10.402;2022-09-13T15:07:56;4.00;;;1.50;;
13228;SDS011;6680;53.220;10.402;2022-09-13T15:10:24;2.20;;;1.57;;
13228;SDS011;6680;53.220;10.402;2022-09-13T15:12:54;1.90;;;1.20;;
13228;SDS011;6680;53.220;10.402;2022-09-13T15:15:35;3.40;;;1.63;;
13228;SDS011;6680;53.220;10.402;2022-09-13T15:18:04;2.20;;;1.57;;
13228;SDS011;6680;53.220;10.402;2022-09-13T15:20:49;2.37;;;2.10;;
13228;SDS011;6680;53.220;10.402;2022-09-13T15:23:18;2.07;;;1.43;;
13228;SDS011;6680;53.220;10.402;2022-09-13T15:25:49;1.87;;;1.33;;
13228;SDS011;6680;53.220;10.402;2022-09-13T15:28:19;4.63;;;2.73;;
13228;SDS011;6680;53.220;10.402;2022-09-13T15:30:49;6.70;;;2.03;;
13228;SDS011;6680;53.220;10.402;2022-09-13T15:33:24;1.60;;;1.50;;
13228;SDS011;6680;53.220;10.402;2022-09-13T15:38:55;1.87;;;1.60;;
13228;SDS011;6680;53.220;10.402;2022-09-13T15:41:27;1.47;;;1.37;;